Time;durP1;ratioP1;P1;durP2;ratioP2;P2;SDS_P1;SDS_P2;PMS_P1;PMS_P2;Temp;Humidity;BMP_temperature;BMP_pressure;BME280_temperature;BME280_humidity;BME280_pressure;Samples;Min_cycle;Max_cycle;Signal;HPM_P1;HPM_P2
2023/08/19 00:00:47;;;;;;;3.23;2.93;;;;;;;21.79;91.09;98018.97;5052158;28;20694;-84
2023/08/19 00:03:14;;;;;;;4.10;3.00;;;;;;;21.71;91.88;98025.25;5052385;28;20326;-84
2023/08/19 00:05:40;;;;;;;4.20;2.77;;;;;;;21.64;92.88;98023.44;5052414;28;20208;-84
2023/08/19 00:08:07;;;;;;;2.90;2.70;;;;;;;21.59;93.51;98037.38;5052404;28;20224;-84
2023/08/19 00:10:33;;;;;;;3.00;2.63;;;;;;;21.60;91.99;98027.47;5052163;28;20215;-84
2023/08/19 00:13:01;;;;;;;3.30;2.70;;;;;;;21.59;91.04;98021.25;5052301;28;20207;-85
2023/08/19 00:15:28;;;;;;;3.40;2.70;;;;;;;21.58;90.83;98014.19;5052414;28;20639;-85
2023/08/19 00:17:54;;;;;;;3.67;2.80;;;;;;;21.55;91.03;98019.09;5052213;28;20236;-85
2023/08/19 00:20:23;;;;;;;3.80;2.73;;;;;;;21.50;92.43;98014.25;5051962;28;20585;-84
2023/08/19 00:22:49;;;;;;;3.50;2.67;;;;;;;21.46;93.39;98022.84;5052138;28;20212;-84
2023/08/19 00:25:16;;;;;;;3.87;2.90;;;;;;;21.41;93.29;98031.47;5051931;28;20227;-84
2023/08/19 00:27:42;;;;;;;3.43;3.10;;;;;;;21.43;93.71;98021.34;5051855;28;20220;-84
2023/08/19 00:30:12;;;;;;;3.70;2.77;;;;;;;21.40;94.04;98027.06;5052056;28;20208;-84
2023/08/19 00:32:40;;;;;;;3.23;2.80;;;;;;;21.37;94.01;98027.44;5052002;28;20231;-86
2023/08/19 00:35:07;;;;;;;4.43;3.47;;;;;;;21.38;93.11;98028.25;5052027;28;20212;-85
2023/08/19 00:37:35;;;;;;;3.20;2.90;;;;;;;21.37;91.64;98016.69;5051543;28;20240;-85
2023/08/19 00:40:04;;;;;;;2.83;2.60;;;;;;;21.36;90.86;98020.38;5051451;28;20204;-85
2023/08/19 00:42:30;;;;;;;3.20;2.90;;;;;;;21.32;90.66;98018.19;5051971;28;20212;-85
2023/08/19 00:44:56;;;;;;;3.53;2.90;;;;;;;21.26;90.64;98019.75;5051840;28;20215;-85
2023/08/19 00:47:26;;;;;;;2.60;2.40;;;;;;;21.22;90.80;98021.09;5051766;28;20224;-85
2023/08/19 00:49:52;;;;;;;2.70;2.40;;;;;;;21.17;91.10;98025.34;5051211;28;20204;-86
2023/08/19 00:52:20;;;;;;;3.57;2.70;;;;;;;21.10;91.70;98027.88;5051242;28;20589;-85
2023/08/19 00:54:46;;;;;;;2.90;2.70;;;;;;;21.04;92.08;98030.44;5050834;28;20212;-85
2023/08/19 00:57:13;;;;;;;3.60;2.80;;;;;;;21.02;92.79;98024.41;5051264;28;20232;-86
2023/08/19 00:59:40;;;;;;;3.67;3.00;;;;;;;21.02;94.46;98035.16;5050749;28;20254;-85
2023/08/19 01:02:06;;;;;;;3.37;3.00;;;;;;;20.98;95.44;98034.63;5048822;28;20208;-85
2023/08/19 01:04:34;;;;;;;4.70;2.80;;;;;;;20.99;96.01;98039.03;5048951;28;20216;-85
2023/08/19 01:07:07;;;;;;;3.07;2.77;;;;;;;21.01;94.97;98026.25;5048579;28;20242;-86
2023/08/19 01:09:42;;;;;;;3.63;2.67;;;;;;;21.03;93.91;98029.59;5051219;28;20193;-94
2023/08/19 01:12:15;;;;;;;3.37;2.90;;;;;;;21.02;93.54;98021.72;5051243;28;20215;-85
2023/08/19 01:14:47;;;;;;;3.30;2.73;;;;;;;21.01;93.68;98020.00;5051144;28;20246;-85
2023/08/19 01:17:16;;;;;;;3.03;2.73;;;;;;;21.02;93.45;98016.34;5051334;28;20243;-85
2023/08/19 01:19:45;;;;;;;3.60;2.90;;;;;;;21.00;93.22;98013.81;5050644;28;20208;-86
2023/08/19 01:22:16;;;;;;;3.57;3.27;;;;;;;20.97;93.51;98016.84;5051325;28;20209;-85
2023/08/19 01:24:44;;;;;;;3.30;3.00;;;;;;;20.91;94.18;98009.47;5051201;28;20540;-85
2023/08/19 01:27:23;;;;;;;3.87;2.70;;;;;;;20.85;95.23;98018.19;5051068;28;20248;-85
2023/08/19 01:29:49;;;;;;;3.70;2.93;;;;;;;20.82;96.60;98009.63;5050536;28;20574;-85
2023/08/19 01:32:16;;;;;;;3.27;2.93;;;;;;;20.83;96.23;98011.31;5051153;28;20208;-85
2023/08/19 01:34:43;;;;;;;2.90;2.60;;;;;;;20.86;95.78;98006.44;5051193;28;20698;-85
2023/08/19 01:37:14;;;;;;;3.20;2.80;;;;;;;20.91;94.68;97998.72;5050817;28;20319;-85
2023/08/19 01:39:44;;;;;;;3.27;2.97;;;;;;;20.94;94.65;98006.44;5050858;28;20208;-85
2023/08/19 01:42:13;;;;;;;4.07;3.20;;;;;;;20.98;94.36;98004.25;5051064;28;20242;-85
2023/08/19 01:44:40;;;;;;;3.30;3.00;;;;;;;20.96;94.73;98012.47;5050826;28;20641;-85
2023/08/19 01:47:16;;;;;;;5.50;3.00;;;;;;;20.94;95.96;98019.88;5050936;28;20326;-85
2023/08/19 01:49:42;;;;;;;3.77;2.93;;;;;;;20.88;96.60;98022.41;5050645;28;20215;-85
2023/08/19 01:52:09;;;;;;;3.53;3.20;;;;;;;20.86;96.40;98021.72;5050848;28;20212;-85
2023/08/19 01:54:35;;;;;;;3.13;2.90;;;;;;;20.86;95.86;98022.53;5050715;28;20214;-85
2023/08/19 01:57:02;;;;;;;4.07;3.30;;;;;;;20.83;95.89;98022.91;5050859;28;20243;-85
2023/08/19 01:59:30;;;;;;;3.80;3.50;;;;;;;20.80;97.34;98030.47;5050690;28;20216;-85
2023/08/19 02:01:56;;;;;;;3.20;2.90;;;;;;;20.72;99.05;98025.94;5050723;28;20215;-86
2023/08/19 02:04:23;;;;;;;6.00;3.80;;;;;;;20.73;100.00;98030.31;5051568;28;20215;-86
2023/08/19 02:06:49;;;;;;;3.87;3.27;;;;;;;20.72;100.00;98025.94;5054655;28;20223;-86
2023/08/19 02:09:15;;;;;;;3.73;3.33;;;;;;;20.67;100.00;98022.94;5054376;28;20212;-85
2023/08/19 02:11:42;;;;;;;3.50;3.20;;;;;;;20.64;100.00;98027.81;5054381;28;20226;-85
2023/08/19 02:14:09;;;;;;;3.37;3.07;;;;;;;20.58;100.00;98029.34;5054808;28;20218;-85
2023/08/19 02:16:37;;;;;;;3.40;3.00;;;;;;;20.53;100.00;98030.84;5054366;28;20722;-85
2023/08/19 02:19:04;;;;;;;3.77;3.23;;;;;;;20.45;100.00;98028.19;5054271;28;20208;-85
2023/08/19 02:21:30;;;;;;;3.33;3.00;;;;;;;20.39;100.00;98040.44;5054037;28;20293;-85
2023/08/19 02:23:57;;;;;;;5.20;3.37;;;;;;;20.35;100.00;98038.28;5054325;28;20224;-85
2023/08/19 02:26:23;;;;;;;5.50;3.63;;;;;;;20.30;100.00;98032.56;5054067;28;20212;-85
2023/08/19 02:28:50;;;;;;;4.10;3.70;;;;;;;20.25;100.00;98037.59;5054382;28;20204;-86
2023/08/19 02:31:16;;;;;;;3.63;3.33;;;;;;;20.21;100.00;98038.94;5053926;28;20209;-85
2023/08/19 02:33:44;;;;;;;4.00;3.37;;;;;;;20.20;100.00;98035.44;5054254;28;20212;-85
2023/08/19 02:36:11;;;;;;;4.33;3.80;;;;;;;20.18;100.00;98034.75;5054348;28;20302;-85
2023/08/19 02:38:37;;;;;;;4.00;3.20;;;;;;;20.15;100.00;98031.56;5068617;22;20618;-82
2023/08/19 02:41:04;;;;;;;5.03;3.37;;;;;;;20.16;100.00;98034.09;5054172;28;20208;-82
2023/08/19 02:43:30;;;;;;;4.80;3.57;;;;;;;20.14;100.00;98032.56;5054398;28;20675;-82
2023/08/19 02:45:57;;;;;;;3.73;3.40;;;;;;;20.11;100.00;98028.38;5054480;28;20212;-83
2023/08/19 02:48:24;;;;;;;4.70;3.90;;;;;;;20.09;100.00;98026.88;5054183;28;20652;-83
2023/08/19 02:50:54;;;;;;;4.33;3.63;;;;;;;20.05;100.00;98030.88;5053919;28;20243;-83
2023/08/19 02:53:21;;;;;;;3.77;3.40;;;;;;;19.96;100.00;98021.97;5054380;28;20623;-84
2023/08/19 02:55:47;;;;;;;4.00;3.47;;;;;;;19.96;100.00;98021.97;5054231;28;20215;-83
2023/08/19 02:58:14;;;;;;;5.33;3.93;;;;;;;19.93;100.00;98024.97;5054025;28;20262;-82
2023/08/19 03:00:41;;;;;;;5.00;4.10;;;;;;;19.90;100.00;98032.53;5053918;28;20212;-84
2023/08/19 03:03:07;;;;;;;4.20;3.60;;;;;;;19.89;100.00;98034.38;5053961;28;20215;-84
2023/08/19 03:05:37;;;;;;;4.87;3.80;;;;;;;19.87;100.00;98031.00;5053867;28;20556;-82
2023/08/19 03:08:06;;;;;;;5.67;3.67;;;;;;;19.82;100.00;98036.03;5053792;28;20371;-82
2023/08/19 03:10:32;;;;;;;5.30;3.77;;;;;;;19.81;100.00;98039.72;5053626;28;20216;-84
2023/08/19 03:12:59;;;;;;;6.13;4.10;;;;;;;19.79;100.00;98035.53;5053759;28;20241;-84
2023/08/19 03:15:25;;;;;;;5.73;4.10;;;;;;;19.80;100.00;98037.22;5053135;28;20227;-83
2023/08/19 03:17:52;;;;;;;5.20;4.00;;;;;;;19.77;100.00;98038.38;5052879;28;20243;-83
2023/08/19 03:20:19;;;;;;;4.70;4.17;;;;;;;19.74;100.00;98032.53;5053347;28;20227;-83
2023/08/19 03:22:45;;;;;;;5.00;4.30;;;;;;;19.73;100.00;98034.34;5053547;28;20216;-83
2023/08/19 03:25:13;;;;;;;5.47;4.43;;;;;;;19.73;100.00;98031.66;5053742;28;20204;-83
2023/08/19 03:27:39;;;;;;;6.63;4.63;;;;;;;19.71;100.00;98038.19;5053562;28;20235;-83
2023/08/19 03:30:07;;;;;;;4.23;3.83;;;;;;;19.67;100.00;98026.97;5053055;28;20224;-83
2023/08/19 03:32:33;;;;;;;4.87;4.40;;;;;;;19.66;100.00;98036.03;5053330;28;20299;-82
2023/08/19 03:35:00;;;;;;;4.77;4.20;;;;;;;19.68;100.00;98030.50;5053165;28;20219;-82
2023/08/19 03:37:26;;;;;;;5.10;4.60;;;;;;;19.68;100.00;98028.63;5053102;28;20982;-83
2023/08/19 03:39:53;;;;;;;6.63;4.70;;;;;;;19.70;100.00;98031.97;5053131;28;20216;-83
2023/08/19 03:42:21;;;;;;;6.60;4.90;;;;;;;19.69;100.00;98024.13;5053228;28;20204;-82
2023/08/19 03:44:47;;;;;;;5.30;4.63;;;;;;;19.69;100.00;98030.31;5053091;28;20719;-84
2023/08/19 03:47:14;;;;;;;6.23;5.20;;;;;;;19.67;100.00;98032.31;5052944;28;20315;-84
2023/08/19 03:49:41;;;;;;;5.97;4.80;;;;;;;19.67;100.00;98029.66;5052610;28;20230;-84
2023/08/19 03:52:08;;;;;;;6.53;4.53;;;;;;;19.66;100.00;98033.34;5052942;28;20215;-83
2023/08/19 03:54:36;;;;;;;5.37;4.37;;;;;;;19.64;100.00;98038.00;5052771;28;20215;-84
2023/08/19 03:57:02;;;;;;;5.23;4.73;;;;;;;19.60;100.00;98020.59;5052671;28;20717;-83
2023/08/19 03:59:30;;;;;;;5.10;4.60;;;;;;;19.59;100.00;98035.00;5052621;28;20208;-83
2023/08/19 04:01:56;;;;;;;6.77;4.63;;;;;;;19.58;100.00;98027.94;5052983;28;20211;-84
2023/08/19 04:04:23;;;;;;;7.33;5.13;;;;;;;19.58;100.00;98030.63;5052695;28;20215;-83
2023/08/19 04:06:49;;;;;;;6.20;4.83;;;;;;;19.55;100.00;98028.28;5052753;28;20323;-84
2023/08/19 04:09:16;;;;;;;5.80;4.97;;;;;;;19.52;100.00;98036.63;5052308;28;20208;-83
2023/08/19 04:11:42;;;;;;;7.67;5.77;;;;;;;19.48;100.00;98035.31;5052558;28;20208;-82
2023/08/19 04:14:09;;;;;;;6.90;4.90;;;;;;;19.45;100.00;98030.25;5052561;28;20204;-83
2023/08/19 04:16:37;;;;;;;7.57;5.33;;;;;;;19.42;100.00;98030.59;5052374;28;20212;-83
2023/08/19 04:19:04;;;;;;;5.67;4.97;;;;;;;19.39;100.00;98028.22;5052115;28;20227;-83
2023/08/19 04:21:31;;;;;;;7.10;4.97;;;;;;;19.40;100.00;98040.66;5052227;28;20211;-83
2023/08/19 04:23:57;;;;;;;7.17;4.80;;;;;;;19.43;100.00;98042.13;5052288;28;20736;-83
2023/08/19 04:26:24;;;;;;;5.73;4.80;;;;;;;19.46;100.00;98050.72;5052455;28;20204;-83
2023/08/19 04:28:52;;;;;;;6.30;4.87;;;;;;;19.49;100.00;98054.88;5052007;28;20363;-83
2023/08/19 04:31:18;;;;;;;7.03;4.97;;;;;;;19.47;100.00;98055.06;5051779;28;20211;-83
2023/08/19 04:33:46;;;;;;;6.60;4.67;;;;;;;19.48;100.00;98059.44;5052074;28;20212;-83
2023/08/19 04:36:13;;;;;;;4.93;4.20;;;;;;;19.49;100.00;98061.09;5052340;28;20230;-84
2023/08/19 04:38:39;;;;;;;5.60;4.83;;;;;;;19.51;100.00;98069.81;5051891;28;20698;-82
2023/08/19 04:41:06;;;;;;;6.83;4.50;;;;;;;19.54;100.00;98055.25;5052050;28;20208;-84
2023/08/19 04:43:32;;;;;;;5.57;4.77;;;;;;;19.56;100.00;98061.31;5052090;28;20219;-83
2023/08/19 04:45:58;;;;;;;5.80;4.87;;;;;;;19.58;100.00;98065.47;5051835;28;20693;-83
2023/08/19 04:48:25;;;;;;;5.10;4.53;;;;;;;19.63;100.00;98056.97;5052213;28;20242;-83
2023/08/19 04:50:53;;;;;;;6.10;4.47;;;;;;;19.68;100.00;98065.34;5051696;28;20210;-82
2023/08/19 04:53:20;;;;;;;4.70;4.07;;;;;;;19.71;100.00;98060.50;5052055;28;20223;-83
2023/08/19 04:55:46;;;;;;;4.90;4.33;;;;;;;19.77;100.00;98056.31;5051902;28;20773;-82
2023/08/19 04:58:13;;;;;;;4.83;4.03;;;;;;;19.79;100.00;98065.88;5051699;28;20240;-83
2023/08/19 05:00:39;;;;;;;6.20;4.40;;;;;;;19.86;100.00;98063.34;5051303;28;20211;-83
2023/08/19 05:03:06;;;;;;;4.63;4.23;;;;;;;19.90;100.00;98062.88;5051943;28;20226;-82
2023/08/19 05:05:32;;;;;;;5.03;4.27;;;;;;;19.95;100.00;98063.22;5051773;28;20208;-83
2023/08/19 05:08:00;;;;;;;4.80;4.30;;;;;;;20.00;100.00;98066.22;5051644;28;20231;-83
2023/08/19 05:10:27;;;;;;;4.63;4.13;;;;;;;20.03;100.00;98060.53;5051247;28;20204;-83
2023/08/19 05:12:54;;;;;;;4.67;4.00;;;;;;;20.06;100.00;98062.91;5051651;28;20705;-83
2023/08/19 05:15:21;;;;;;;4.40;4.00;;;;;;;20.10;100.00;98064.25;5051462;28;20704;-83
2023/08/19 05:17:47;;;;;;;5.47;4.17;;;;;;;20.12;100.00;98066.78;5051549;28;20242;-83
2023/08/19 05:20:14;;;;;;;5.03;4.13;;;;;;;20.16;100.00;98071.66;5051137;28;20651;-85
2023/08/19 05:22:40;;;;;;;5.73;4.30;;;;;;;20.18;100.00;98064.25;5051569;28;20584;-84
2023/08/19 05:25:09;;;;;;;5.77;4.00;;;;;;;20.20;100.00;98062.28;5051524;28;20204;-83
2023/08/19 05:27:35;;;;;;;6.63;4.10;;;;;;;20.22;100.00;98062.94;5051415;28;20228;-83
2023/08/19 05:30:04;;;;;;;5.90;3.67;;;;;;;20.20;100.00;98064.09;5051626;28;20211;-83
2023/08/19 05:32:30;;;;;;;5.00;4.00;;;;;;;20.18;100.00;98063.44;5051462;28;20212;-83
2023/08/19 05:34:57;;;;;;;4.23;3.80;;;;;;;20.19;100.00;98068.63;5051560;28;20269;-82
2023/08/19 05:37:23;;;;;;;5.33;3.90;;;;;;;20.20;100.00;98067.63;5051254;28;20243;-84
2023/08/19 05:39:50;;;;;;;6.20;4.77;;;;;;;20.30;100.00;98062.94;5054846;28;20228;-83
2023/08/19 05:42:18;;;;;;;4.80;4.30;;;;;;;20.39;100.00;98063.75;5057894;28;20212;-84
2023/08/19 05:44:44;;;;;;;5.13;4.00;;;;;;;20.52;100.00;98067.63;5058103;28;20216;-83
2023/08/19 05:47:11;;;;;;;5.43;4.30;;;;;;;20.63;100.00;98064.59;5057828;28;20228;-83
2023/08/19 05:49:37;;;;;;;4.33;3.93;;;;;;;20.74;100.00;98066.94;5057514;28;20210;-82
2023/08/19 05:52:04;;;;;;;4.60;3.67;;;;;;;20.93;100.00;98071.09;5058079;28;20214;-84
2023/08/19 05:54:31;;;;;;;5.67;4.30;;;;;;;21.09;100.00;98077.25;5057833;28;20208;-83
2023/08/19 05:56:57;;;;;;;5.97;4.00;;;;;;;21.28;100.00;98076.84;5058060;28;20240;-82
2023/08/19 05:59:25;;;;;;;5.77;3.87;;;;;;;21.64;100.00;98083.44;5057666;28;20231;-83
2023/08/19 06:01:51;;;;;;;5.20;4.00;;;;;;;22.15;100.00;98088.22;5058055;28;20204;-84
2023/08/19 06:04:19;;;;;;;4.37;3.80;;;;;;;22.78;96.62;98090.53;5057841;28;20212;-84
2023/08/19 06:06:45;;;;;;;4.43;3.53;;;;;;;23.42;90.22;98081.81;5058101;28;20208;-83
2023/08/19 06:09:12;;;;;;;4.57;3.37;;;;;;;23.94;86.28;98075.22;5057546;28;20208;-83
2023/08/19 06:11:48;;;;;;;5.73;3.63;;;;;;;24.41;82.51;98072.81;5063415;28;20294;-81
2023/08/19 06:14:14;;;;;;;3.97;3.10;;;;;;;24.83;79.63;98070.06;5067680;28;20216;-82
2023/08/19 06:16:43;;;;;;;4.37;3.40;;;;;;;25.18;76.61;98052.81;5067788;28;20207;-82
2023/08/19 06:19:10;;;;;;;5.73;4.03;;;;;;;25.49;73.74;98044.28;5060495;28;20714;-83
2023/08/19 06:21:36;;;;;;;3.93;3.50;;;;;;;25.73;72.46;98060.81;5057979;28;20210;-84
2023/08/19 06:24:03;;;;;;;4.47;3.60;;;;;;;25.99;72.14;98063.66;5058158;28;20293;-83
2023/08/19 06:26:30;;;;;;;3.50;3.20;;;;;;;26.09;70.67;98052.44;5058138;28;20218;-82
2023/08/19 06:28:57;;;;;;;4.03;3.40;;;;;;;26.02;71.08;98060.53;5057871;28;20722;-86
2023/08/19 06:31:24;;;;;;;3.73;3.17;;;;;;;25.63;72.47;98070.38;5056828;28;20747;-75
2023/08/19 06:33:54;;;;;;;3.63;3.20;;;;;;;25.15;75.92;98088.41;5057388;28;20205;-76
2023/08/19 06:36:28;;;;;;;4.10;3.60;;;;;;;24.75;77.84;98097.22;5057478;28;20415;-83
2023/08/19 06:39:05;;;;;;;4.00;3.13;;;;;;;24.43;80.00;98096.91;5057150;28;20232;-80
2023/08/19 06:41:34;;;;;;;3.80;3.40;;;;;;;24.32;81.70;98089.34;5057284;28;20218;-79
2023/08/19 06:44:03;;;;;;;4.13;3.30;;;;;;;24.25;83.76;98101.94;5057503;28;20207;-80
2023/08/19 06:46:31;;;;;;;3.93;3.23;;;;;;;24.22;84.24;98105.00;5057250;28;20212;-79
2023/08/19 06:48:59;;;;;;;5.07;3.27;;;;;;;24.21;83.88;98106.88;5056993;28;20227;-81
2023/08/19 06:51:27;;;;;;;3.20;2.90;;;;;;;24.20;83.26;98107.91;5055057;28;20208;-80
2023/08/19 06:53:54;;;;;;;5.07;3.70;;;;;;;24.21;80.90;98103.34;5054635;28;20235;-81
2023/08/19 06:56:27;;;;;;;5.80;3.47;;;;;;;24.27;81.16;98111.50;5054408;28;20212;-80
2023/08/19 06:59:02;;;;;;;4.00;3.50;;;;;;;24.37;79.65;98109.34;5054143;28;20232;-80
2023/08/19 07:01:31;;;;;;;4.33;3.30;;;;;;;24.51;80.15;98113.81;5053849;28;20222;-80
2023/08/19 07:04:00;;;;;;;3.77;3.13;;;;;;;24.65;79.51;98112.97;5054113;28;20208;-80
2023/08/19 07:06:30;;;;;;;4.30;3.50;;;;;;;24.68;79.58;98115.28;5053996;28;20215;-80
2023/08/19 07:08:58;;;;;;;6.07;3.47;;;;;;;24.79;79.39;98108.50;5053914;28;20228;-80
2023/08/19 07:11:25;;;;;;;3.70;3.33;;;;;;;24.98;81.17;98127.59;5053797;28;20204;-80
2023/08/19 07:13:52;;;;;;;3.67;3.35;;;;;;;25.06;79.29;98121.19;5053676;28;20219;-80
2023/08/19 07:16:21;;;;;;;4.17;3.53;;;;;;;25.08;78.51;98114.56;5054104;28;20482;-80
2023/08/19 07:18:49;;;;;;;5.33;3.63;;;;;;;25.14;79.58;98112.94;5053770;28;20232;-81
2023/08/19 07:21:21;;;;;;;4.23;3.50;;;;;;;25.26;77.95;98112.22;5053337;28;20242;-81
2023/08/19 07:23:48;;;;;;;3.47;3.13;;;;;;;25.29;76.93;98114.53;5053648;28;20219;-80
2023/08/19 07:26:15;;;;;;;3.87;3.47;;;;;;;25.38;77.34;98115.19;5061057;28;20385;-79
2023/08/19 07:28:42;;;;;;;5.27;3.67;;;;;;;25.49;77.25;98123.59;5059833;28;20220;-81
2023/08/19 07:31:10;;;;;;;3.80;3.50;;;;;;;25.68;76.82;98117.47;5056951;28;20211;-81
2023/08/19 07:33:37;;;;;;;3.42;2.83;;;;;;;25.76;75.93;98114.59;5057074;28;20208;-80
2023/08/19 07:36:04;;;;;;;4.30;3.40;;;;;;;25.89;74.07;98114.63;5053854;28;20208;-81
2023/08/19 07:38:32;;;;;;;3.67;3.00;;;;;;;25.93;73.98;98115.94;5053029;28;20232;-81
2023/08/19 07:40:58;;;;;;;4.57;3.43;;;;;;;26.03;73.49;98116.38;5052928;28;20210;-83
2023/08/19 07:43:25;;;;;;;3.13;2.93;;;;;;;26.15;71.05;98106.63;5053265;28;20671;-81
2023/08/19 07:45:51;;;;;;;3.40;3.10;;;;;;;26.27;71.80;98117.72;5053300;28;20204;-77
2023/08/19 07:48:18;;;;;;;3.53;3.10;;;;;;;26.22;71.87;98112.88;5053036;28;20234;-81
2023/08/19 07:50:44;;;;;;;4.67;3.40;;;;;;;26.23;71.38;98114.59;5052656;28;20227;-77
2023/08/19 07:53:12;;;;;;;3.57;3.20;;;;;;;26.33;71.75;98128.56;5052977;28;20215;-75
2023/08/19 07:55:41;;;;;;;4.07;3.27;;;;;;;26.52;71.53;98122.34;5051816;28;20467;-78
2023/08/19 07:58:08;;;;;;;4.18;3.28;;;;;;;26.60;71.27;98124.06;5053022;28;20240;-79
2023/08/19 08:00:35;;;;;;;4.28;3.25;;;;;;;26.72;71.43;98120.53;5052584;28;20228;-80
2023/08/19 08:03:02;;;;;;;5.03;3.38;;;;;;;26.86;70.50;98119.50;5052333;28;20204;-85
2023/08/19 08:05:28;;;;;;;3.75;3.30;;;;;;;26.98;68.96;98115.94;5052605;28;20223;-78
2023/08/19 08:07:55;;;;;;;4.55;3.40;;;;;;;27.04;66.13;98092.56;5052585;28;20232;-79
2023/08/19 08:10:21;;;;;;;4.32;3.65;;;;;;;27.21;66.26;98101.97;5051321;28;20435;-79
2023/08/19 08:12:49;;;;;;;4.35;3.33;;;;;;;27.30;66.86;98111.56;5052809;28;20218;-79
2023/08/19 08:15:16;;;;;;;3.40;3.10;;;;;;;27.39;65.10;98100.25;5052536;28;20219;-78
2023/08/19 08:17:42;;;;;;;3.43;3.10;;;;;;;27.56;65.12;98106.91;5052554;28;20674;-79
2023/08/19 08:20:10;;;;;;;5.50;3.38;;;;;;;27.72;63.67;98102.88;5052095;28;20608;-79
2023/08/19 08:22:36;;;;;;;3.92;3.13;;;;;;;27.78;63.74;98093.91;5052306;28;20214;-79
2023/08/19 08:25:05;;;;;;;3.53;3.17;;;;;;;27.80;60.80;98075.50;5052624;28;20585;-79
2023/08/19 08:27:31;;;;;;;3.53;3.20;;;;;;;27.93;60.08;98076.28;5052452;28;20228;-78
2023/08/19 08:29:59;;;;;;;3.50;3.20;;;;;;;27.99;61.31;98088.16;5052037;28;20227;-79
2023/08/19 08:32:26;;;;;;;5.78;3.50;;;;;;;28.07;59.57;98077.06;5052407;28;20204;-78
2023/08/19 08:34:52;;;;;;;4.22;3.47;;;;;;;28.14;59.36;98080.56;5052105;28;20212;-78
2023/08/19 08:37:19;;;;;;;4.78;3.08;;;;;;;28.13;57.62;98062.59;5067004;22;20235;-82
2023/08/19 08:39:45;;;;;;;4.20;3.40;;;;;;;28.19;57.50;98073.41;5051075;28;20673;-83
2023/08/19 08:42:12;;;;;;;5.18;3.28;;;;;;;28.24;58.09;98064.63;5052080;28;20283;-83
2023/08/19 08:44:39;;;;;;;3.75;3.10;;;;;;;28.32;57.81;98067.91;5051936;28;20214;-83
2023/08/19 08:47:09;;;;;;;5.00;3.50;;;;;;;28.47;57.83;98068.47;5052435;28;20204;-81
2023/08/19 08:49:36;;;;;;;5.40;3.30;;;;;;;28.66;58.46;98081.09;5051647;28;20211;-87
2023/08/19 08:52:03;;;;;;;3.33;3.03;;;;;;;28.75;57.13;98076.22;5051663;28;20212;-86
2023/08/19 08:54:30;;;;;;;3.53;3.22;;;;;;;28.91;57.13;98070.22;5051852;28;20208;-85
2023/08/19 08:56:57;;;;;;;5.85;3.80;;;;;;;29.09;56.21;98065.66;5051720;28;20208;-86
2023/08/19 08:59:24;;;;;;;4.53;3.20;;;;;;;29.24;56.19;98068.03;5051113;28;20315;-86
2023/08/19 09:01:51;;;;;;;4.72;3.22;;;;;;;29.39;55.86;98073.94;5051353;28;20208;-83
2023/08/19 09:04:23;;;;;;;7.63;3.45;;;;;;;29.50;55.83;98065.03;5051398;28;20238;-84
2023/08/19 09:06:57;;;;;;;3.38;3.08;;;;;;;29.71;53.95;98051.81;5050468;28;20424;-85
2023/08/19 09:09:25;;;;;;;3.03;2.78;;;;;;;29.73;53.45;98051.59;5051348;28;20301;-86
2023/08/19 09:11:55;;;;;;;4.03;3.40;;;;;;;29.72;53.68;98056.19;5051589;28;20208;-85
2023/08/19 09:14:29;;;;;;;4.50;3.67;;;;;;;29.70;51.88;98049.34;5050439;28;20274;-82
2023/08/19 09:16:55;;;;;;;4.68;3.10;;;;;;;29.79;51.63;98053.41;5051243;28;20234;-81
2023/08/19 09:19:23;;;;;;;5.50;3.13;;;;;;;29.84;50.46;98046.19;5050962;28;20704;-82
2023/08/19 09:21:50;;;;;;;4.68;3.40;;;;;;;29.95;50.48;98052.78;5051201;28;20208;-81
2023/08/19 09:24:17;;;;;;;4.30;3.13;;;;;;;30.00;50.13;98061.91;5051040;28;20208;-82
2023/08/19 09:26:44;;;;;;;4.07;3.30;;;;;;;30.04;49.99;98054.09;5051207;28;20208;-80
2023/08/19 09:29:10;;;;;;;5.72;3.78;;;;;;;30.19;50.02;98057.31;5050800;28;20220;-80
2023/08/19 09:31:38;;;;;;;4.13;3.50;;;;;;;30.33;51.66;98075.94;5051466;28;20211;-80
2023/08/19 09:34:05;;;;;;;3.80;2.83;;;;;;;30.39;50.88;98061.38;5051225;28;20393;-81
2023/08/19 09:36:33;;;;;;;3.72;3.10;;;;;;;30.47;50.23;98061.06;5051156;28;20223;-82
2023/08/19 09:38:59;;;;;;;7.72;3.30;;;;;;;30.55;49.03;98048.97;5050933;28;20247;-83
2023/08/19 09:41:27;;;;;;;4.07;3.30;;;;;;;30.65;49.74;98061.03;5050921;28;20243;-82
2023/08/19 09:43:54;;;;;;;4.03;3.40;;;;;;;30.67;48.88;98053.44;5050999;28;20208;-82
2023/08/19 09:46:21;;;;;;;3.80;3.38;;;;;;;30.74;48.40;98056.06;5051239;28;20216;-82
2023/08/19 09:48:53;;;;;;;4.97;3.30;;;;;;;30.78;48.29;98062.69;5050942;28;20228;-81
2023/08/19 09:51:23;;;;;;;4.85;3.45;;;;;;;30.87;48.50;98058.56;5050781;28;20208;-80
2023/08/19 09:53:51;;;;;;;3.80;3.10;;;;;;;30.94;48.15;98057.38;5050975;28;20243;-80
2023/08/19 09:56:22;;;;;;;6.57;3.70;;;;;;;31.04;48.77;98068.53;5050715;28;20769;-81
2023/08/19 09:58:50;;;;;;;3.45;3.15;;;;;;;31.15;48.22;98066.88;5051019;28;20235;-81
2023/08/19 10:01:17;;;;;;;4.05;3.53;;;;;;;31.27;48.22;98065.00;5050826;28;20224;-80
2023/08/19 10:03:43;;;;;;;5.00;3.38;;;;;;;31.38;48.22;98066.91;5051246;28;20204;-81
2023/08/19 10:06:12;;;;;;;4.35;3.72;;;;;;;31.50;48.75;98081.38;5050790;28;20674;-81
2023/08/19 10:08:44;;;;;;;4.53;3.50;;;;;;;31.54;47.28;98071.66;5050699;28;20223;-81
2023/08/19 10:11:13;;;;;;;3.40;3.10;;;;;;;31.47;46.54;98060.03;5050755;28;20216;-81
2023/08/19 10:13:39;;;;;;;4.32;3.40;;;;;;;31.50;47.77;98073.19;5051136;28;20584;-81
2023/08/19 10:16:07;;;;;;;3.80;3.50;;;;;;;31.55;47.97;98073.31;5050966;28;20204;-81
2023/08/19 10:18:40;;;;;;;5.38;3.92;;;;;;;31.69;47.54;98063.75;5050661;28;20595;-79
2023/08/19 10:21:09;;;;;;;5.38;3.00;;;;;;;31.70;46.13;98049.88;5050408;28;20228;-94
2023/08/19 10:23:40;;;;;;;3.38;3.08;;;;;;;31.83;46.40;98059.72;5050759;28;20219;-85
2023/08/19 10:26:07;;;;;;;3.40;3.10;;;;;;;31.97;46.75;98072.88;5054185;28;20208;-89
2023/08/19 10:28:36;;;;;;;3.50;3.17;;;;;;;32.12;44.24;98042.25;5055251;28;20228;-90
2023/08/19 10:31:07;;;;;;;5.07;3.22;;;;;;;32.04;43.77;98048.13;5054367;28;20208;-89
2023/08/19 10:33:39;;;;;;;4.18;3.40;;;;;;;32.07;44.51;98051.22;5054259;28;20208;-80
2023/08/19 10:36:07;;;;;;;6.68;3.10;;;;;;;32.22;43.85;98048.75;5054104;28;20212;-80
2023/08/19 10:38:46;;;;;;;4.10;3.50;;;;;;;32.17;43.60;98047.84;5054133;28;20322;-88
2023/08/19 10:41:35;;;;;;;4.65;3.13;;;;;;;32.31;41.76;98027.34;5054008;28;20232;-79
2023/08/19 10:44:05;;;;;;;4.30;3.40;;;;;;;32.19;43.07;98035.56;5051269;28;20769;-79
2023/08/19 10:46:33;;;;;;;3.22;2.92;;;;;;;32.26;42.31;98032.75;5054279;28;20212;-82
2023/08/19 10:49:00;;;;;;;3.90;3.33;;;;;;;32.41;41.46;98022.06;5053917;28;20274;-84
2023/08/19 10:51:50;;;;;;;5.50;3.17;;;;;;;32.25;41.48;98025.56;5053782;28;20207;-82
2023/08/19 10:54:26;;;;;;;4.03;3.60;;;;;;;32.19;41.39;98021.06;5054063;28;20204;-82
2023/08/19 10:56:53;;;;;;;5.35;3.30;;;;;;;32.10;41.80;98022.53;5053655;28;20306;-85
2023/08/19 10:59:21;;;;;;;4.07;3.08;;;;;;;32.17;41.71;98025.94;5053578;28;20236;-81
2023/08/19 11:01:48;;;;;;;4.50;3.38;;;;;;;32.27;43.42;98048.88;5053939;28;20212;-81
2023/08/19 11:04:16;;;;;;;4.07;3.17;;;;;;;32.41;42.88;98042.06;5053730;28;20303;-81
2023/08/19 11:06:42;;;;;;;5.80;3.22;;;;;;;32.65;40.76;98021.66;5053514;28;20689;-81
2023/08/19 11:09:09;;;;;;;6.15;3.20;;;;;;;32.66;40.14;98015.13;5053647;28;20567;-84
2023/08/19 11:11:36;;;;;;;5.00;3.30;;;;;;;32.66;38.93;98006.06;5053771;28;20212;-84
2023/08/19 11:14:02;;;;;;;4.07;3.08;;;;;;;32.86;38.58;98006.41;5053732;28;20533;-84
2023/08/19 11:16:30;;;;;;;4.07;2.90;;;;;;;32.78;36.59;97987.69;5053530;28;20208;-84
2023/08/19 11:18:57;;;;;;;4.18;2.92;;;;;;;32.83;37.79;97995.97;5053304;28;20228;-84
2023/08/19 11:21:25;;;;;;;4.00;2.78;;;;;;;32.99;39.02;98011.53;5053202;28;20289;-84
2023/08/19 11:23:52;;;;;;;5.47;3.40;;;;;;;33.20;41.55;98044.50;5053233;28;20659;-84
2023/08/19 11:26:19;;;;;;;4.63;3.10;;;;;;;33.20;40.32;98013.53;5053530;28;20212;-83
2023/08/19 11:28:45;;;;;;;3.97;2.88;;;;;;;33.30;39.94;98021.94;5053427;28;20232;-84
2023/08/19 11:31:12;;;;;;;4.13;3.00;;;;;;;33.26;40.10;98027.09;5053139;28;20215;-84
2023/08/19 11:33:41;;;;;;;3.83;3.40;;;;;;;33.32;39.79;98017.00;5053224;28;20286;-84